createdAt,value
2018-08-16T00:00:16.318Z,20.80
2018-08-16T00:00:48.843Z,20.80
2018-08-16T00:01:21.340Z,20.80
2018-08-16T00:01:54.655Z,20.80
2018-08-16T00:02:27.175Z,20.80
2018-08-16T00:02:59.694Z,20.80
2018-08-16T00:03:32.207Z,20.80
2018-08-16T00:04:04.748Z,20.70
2018-08-16T00:04:37.259Z,20.80
2018-08-16T00:05:09.759Z,20.70
2018-08-16T00:05:42.415Z,20.70
2018-08-16T00:06:14.921Z,20.80
2018-08-16T00:06:47.456Z,20.80
2018-08-16T00:07:19.959Z,20.70
2018-08-16T00:07:52.476Z,20.70
2018-08-16T00:08:25.020Z,20.70
2018-08-16T00:08:57.539Z,20.70
2018-08-16T00:09:30.490Z,20.70
2018-08-16T00:10:03.528Z,20.70
2018-08-16T00:10:37.128Z,20.70
2018-08-16T00:11:10.478Z,20.70
2018-08-16T00:11:43.111Z,20.60
2018-08-16T00:12:15.610Z,20.70
2018-08-16T00:12:48.123Z,20.70
2018-08-16T00:13:20.636Z,20.70
2018-08-16T00:13:53.901Z,20.70
2018-08-16T00:14:26.414Z,20.70
2018-08-16T00:14:58.923Z,20.70
2018-08-16T00:15:31.422Z,20.70
2018-08-16T00:16:03.930Z,20.70
2018-08-16T00:16:36.450Z,20.70
2018-08-16T00:17:09.723Z,20.70
2018-08-16T00:17:42.235Z,20.60
2018-08-16T00:18:14.887Z,20.70
2018-08-16T00:18:47.388Z,20.70
2018-08-16T00:19:19.885Z,20.60
2018-08-16T00:19:52.408Z,20.60
2018-08-16T00:20:24.921Z,20.60
2018-08-16T00:20:57.419Z,20.60
2018-08-16T00:21:30.035Z,20.60
2018-08-16T00:22:02.555Z,20.60
2018-08-16T00:22:35.063Z,20.60
2018-08-16T00:23:07.564Z,20.60
2018-08-16T00:23:40.065Z,20.60
2018-08-16T00:24:12.567Z,20.60
2018-08-16T00:24:45.061Z,20.60
2018-08-16T00:25:17.580Z,20.60
2018-08-16T00:25:50.095Z,20.60
2018-08-16T00:26:22.597Z,20.60
2018-08-16T00:26:55.126Z,20.60
2018-08-16T00:27:27.627Z,20.60
2018-08-16T00:28:00.574Z,20.60
2018-08-16T00:28:33.155Z,20.60
2018-08-16T00:29:05.658Z,20.60
2018-08-16T00:29:38.172Z,20.50
2018-08-16T00:30:10.682Z,20.60
2018-08-16T00:30:43.207Z,20.60
2018-08-16T00:31:16.397Z,20.50
2018-08-16T00:31:49.636Z,20.50
2018-08-16T00:32:22.923Z,20.50
2018-08-16T00:32:55.427Z,20.50
2018-08-16T00:33:27.922Z,20.50
2018-08-16T00:34:00.446Z,20.50
2018-08-16T00:34:33.755Z,20.50
2018-08-16T00:35:06.267Z,20.50
2018-08-16T00:35:38.767Z,20.50
2018-08-16T00:36:11.263Z,20.50
2018-08-16T00:36:44.535Z,20.50
2018-08-16T00:37:17.557Z,20.50
2018-08-16T00:37:50.772Z,20.50
2018-08-16T00:38:23.286Z,20.50
2018-08-16T00:38:56.547Z,20.50
2018-08-16T00:39:29.822Z,20.50
2018-08-16T00:40:02.309Z,20.50
2018-08-16T00:40:34.815Z,20.50
2018-08-16T00:41:07.328Z,20.50
2018-08-16T00:41:40.588Z,20.50
2018-08-16T00:42:13.095Z,20.50
2018-08-16T00:42:45.611Z,20.50
2018-08-16T00:43:18.111Z,20.50
2018-08-16T00:43:50.644Z,20.50
2018-08-16T00:44:23.891Z,20.50
2018-08-16T00:44:57.152Z,20.50
2018-08-16T00:45:29.684Z,20.40
2018-08-16T00:46:02.632Z,20.40
2018-08-16T00:46:35.761Z,20.50
2018-08-16T00:47:08.793Z,20.40
2018-08-16T00:47:41.821Z,20.40
2018-08-16T00:48:14.908Z,20.40
2018-08-16T00:48:47.949Z,20.40
2018-08-16T00:49:21.004Z,20.40
2018-08-16T00:49:54.811Z,20.40
2018-08-16T00:50:28.607Z,20.40
2018-08-16T00:51:01.649Z,20.40
2018-08-16T00:51:34.689Z,20.40
2018-08-16T00:52:08.373Z,20.40
2018-08-16T00:52:41.420Z,20.40
2018-08-16T00:53:14.471Z,20.40
2018-08-16T00:53:47.501Z,20.40
2018-08-16T00:54:20.528Z,20.40
2018-08-16T00:54:54.324Z,20.40
2018-08-16T00:55:27.353Z,20.40
2018-08-16T00:56:00.380Z,20.30
2018-08-16T00:56:34.191Z,20.30
2018-08-16T00:57:07.217Z,20.30
2018-08-16T00:57:40.273Z,20.40
2018-08-16T00:58:13.295Z,20.30
2018-08-16T00:58:47.096Z,20.30
2018-08-16T00:59:19.724Z,20.30
2018-08-16T00:59:53.449Z,20.40
2018-08-16T01:00:27.240Z,20.30
2018-08-16T01:01:00.291Z,20.30
2018-08-16T01:01:33.323Z,20.30
2018-08-16T01:02:06.348Z,20.30
2018-08-16T01:02:40.159Z,20.30
2018-08-16T01:03:13.953Z,20.30
2018-08-16T01:03:47.740Z,20.30
2018-08-16T01:04:21.520Z,20.30
2018-08-16T01:04:55.320Z,20.30
2018-08-16T01:05:29.117Z,20.30
2018-08-16T01:06:02.919Z,20.30
2018-08-16T01:06:35.947Z,20.30
2018-08-16T01:07:08.986Z,20.30
2018-08-16T01:07:42.040Z,20.30
2018-08-16T01:08:15.064Z,20.30
2018-08-16T01:08:48.099Z,20.30
2018-08-16T01:09:21.156Z,20.30
2018-08-16T01:09:54.232Z,20.30
2018-08-16T01:10:27.219Z,20.30
2018-08-16T01:11:00.251Z,20.30
2018-08-16T01:11:33.287Z,20.30
2018-08-16T01:12:06.315Z,20.30
2018-08-16T01:12:40.330Z,20.30
2018-08-16T01:13:13.387Z,20.30
2018-08-16T01:13:45.963Z,20.30
2018-08-16T01:14:18.480Z,20.30
2018-08-16T01:14:50.991Z,20.30
2018-08-16T01:15:23.495Z,20.30
2018-08-16T01:15:56.016Z,20.30
2018-08-16T01:16:28.512Z,20.20
2018-08-16T01:17:01.023Z,20.20
2018-08-16T01:17:33.534Z,20.20
2018-08-16T01:18:06.056Z,20.20
2018-08-16T01:18:38.579Z,20.20
2018-08-16T01:19:11.086Z,20.20
2018-08-16T01:19:43.588Z,20.20
2018-08-16T01:20:16.124Z,20.20
2018-08-16T01:20:48.678Z,20.20
2018-08-16T01:21:21.182Z,20.20
2018-08-16T01:21:53.810Z,20.20
2018-08-16T01:22:26.316Z,20.20
2018-08-16T01:22:58.935Z,20.20
2018-08-16T01:23:31.450Z,20.20
2018-08-16T01:24:04.727Z,20.20
2018-08-16T01:24:37.239Z,20.20
2018-08-16T01:25:09.793Z,20.20
2018-08-16T01:25:42.318Z,20.20
2018-08-16T01:26:16.341Z,20.20
2018-08-16T01:26:49.090Z,20.20
2018-08-16T01:27:21.589Z,20.20
2018-08-16T01:27:54.107Z,20.20
2018-08-16T01:28:26.608Z,20.20
2018-08-16T01:28:59.127Z,20.20
2018-08-16T01:29:31.647Z,20.20
2018-08-16T01:30:04.622Z,20.50
2018-08-16T01:30:37.655Z,20.10
2018-08-16T01:31:10.677Z,20.20
2018-08-16T01:31:43.863Z,20.10
2018-08-16T01:32:16.903Z,20.20
2018-08-16T01:32:49.963Z,20.20
2018-08-16T01:33:22.999Z,20.10
2018-08-16T01:33:56.071Z,20.20
2018-08-16T01:34:29.112Z,20.10
2018-08-16T01:35:02.149Z,20.10
2018-08-16T01:35:35.318Z,20.10
2018-08-16T01:36:08.312Z,20.10
2018-08-16T01:36:41.353Z,20.10
2018-08-16T01:37:14.379Z,20.10
2018-08-16T01:37:48.201Z,20.10
2018-08-16T01:38:21.232Z,20.10
2018-08-16T01:38:54.261Z,20.10
2018-08-16T01:39:27.280Z,20.10
2018-08-16T01:40:00.313Z,20.10
2018-08-16T01:40:33.336Z,20.10
2018-08-16T01:41:06.364Z,20.10
2018-08-16T01:41:40.164Z,20.10
2018-08-16T01:42:13.180Z,20.10
2018-08-16T01:42:46.988Z,20.10
2018-08-16T01:43:20.022Z,20.00
2018-08-16T01:43:53.044Z,20.10
2018-08-16T01:44:26.075Z,20.10
2018-08-16T01:44:59.111Z,20.10
2018-08-16T01:45:32.145Z,20.10
2018-08-16T01:46:05.987Z,20.10
2018-08-16T01:46:39.058Z,20.00
2018-08-16T01:47:12.107Z,20.10
2018-08-16T01:47:45.143Z,20.10
2018-08-16T01:48:18.183Z,20.00
2018-08-16T01:48:51.220Z,20.00
2018-08-16T01:49:24.279Z,20.10
2018-08-16T01:49:58.068Z,20.10
2018-08-16T01:50:31.096Z,20.00
2018-08-16T01:51:04.131Z,20.00
2018-08-16T01:51:37.180Z,20.00
2018-08-16T01:52:10.212Z,20.00
2018-08-16T01:52:43.232Z,20.00
2018-08-16T01:53:16.357Z,20.00
2018-08-16T01:53:49.385Z,20.00
2018-08-16T01:54:22.931Z,20.00
2018-08-16T01:54:55.968Z,20.00
2018-08-16T01:55:29.773Z,20.00
2018-08-16T01:56:02.807Z,20.00
2018-08-16T01:56:35.828Z,20.00
2018-08-16T01:57:08.883Z,20.00
2018-08-16T01:57:41.904Z,20.00
2018-08-16T01:58:14.936Z,20.00
2018-08-16T01:58:48.745Z,20.00
2018-08-16T01:59:21.796Z,20.00
2018-08-16T01:59:54.835Z,20.00
2018-08-16T02:00:29.391Z,20.00
2018-08-16T02:01:02.418Z,20.00
2018-08-16T02:01:36.228Z,20.00
2018-08-16T02:02:09.275Z,20.00
2018-08-16T02:02:42.319Z,20.00
2018-08-16T02:03:16.136Z,20.00
2018-08-16T02:03:49.186Z,20.00
2018-08-16T02:04:22.218Z,20.00
2018-08-16T02:04:56.021Z,20.00
2018-08-16T02:05:29.039Z,19.90
2018-08-16T02:06:02.077Z,20.00
2018-08-16T02:06:35.875Z,19.90
2018-08-16T02:07:09.704Z,19.90
2018-08-16T02:07:42.747Z,19.90
2018-08-16T02:08:15.806Z,19.90
2018-08-16T02:08:48.833Z,19.90
2018-08-16T02:09:21.881Z,19.90
2018-08-16T02:09:54.902Z,20.00
2018-08-16T02:10:27.926Z,19.90
2018-08-16T02:11:01.720Z,19.90
2018-08-16T02:11:34.751Z,19.90
2018-08-16T02:12:07.788Z,19.90
2018-08-16T02:12:40.831Z,19.90
2018-08-16T02:13:14.623Z,19.90
2018-08-16T02:13:48.408Z,19.90
2018-08-16T02:14:22.195Z,19.90
2018-08-16T02:14:55.225Z,19.90
2018-08-16T02:15:28.335Z,19.90
2018-08-16T02:16:01.343Z,19.90
2018-08-16T02:16:34.398Z,19.90
2018-08-16T02:17:07.445Z,19.90
2018-08-16T02:17:40.471Z,19.90
2018-08-16T02:18:13.511Z,19.90
2018-08-16T02:18:46.536Z,19.90
2018-08-16T02:19:19.612Z,19.90
2018-08-16T02:19:52.637Z,19.90
2018-08-16T02:20:25.676Z,19.90
2018-08-16T02:20:58.715Z,19.80
2018-08-16T02:21:32.516Z,19.80
2018-08-16T02:22:05.560Z,19.80
2018-08-16T02:22:38.589Z,19.90
2018-08-16T02:23:11.615Z,19.90
2018-08-16T02:23:45.416Z,19.90
2018-08-16T02:24:19.252Z,19.80
2018-08-16T02:24:52.276Z,19.90
2018-08-16T02:25:25.312Z,19.90
2018-08-16T02:25:58.343Z,19.90
2018-08-16T02:26:31.367Z,19.80
2018-08-16T02:27:04.423Z,19.80
2018-08-16T02:27:37.446Z,19.80
2018-08-16T02:28:11.236Z,19.80
2018-08-16T02:28:45.028Z,19.80
2018-08-16T02:29:18.822Z,19.80
2018-08-16T02:29:52.615Z,19.80
2018-08-16T02:30:26.416Z,19.80
2018-08-16T02:31:00.257Z,19.80
2018-08-16T02:31:33.281Z,19.80
2018-08-16T02:32:06.356Z,19.80
2018-08-16T02:32:40.152Z,19.80
2018-08-16T02:33:13.935Z,19.80
2018-08-16T02:33:47.787Z,19.80
2018-08-16T02:34:21.521Z,19.80
2018-08-16T02:34:55.309Z,19.80
2018-08-16T02:35:29.119Z,19.80
2018-08-16T02:36:02.144Z,19.80
2018-08-16T02:36:35.304Z,19.80
2018-08-16T02:37:08.332Z,19.80
2018-08-16T02:37:42.132Z,19.80
2018-08-16T02:38:15.923Z,19.80
2018-08-16T02:38:49.724Z,19.80
2018-08-16T02:39:22.760Z,19.80
2018-08-16T02:39:55.808Z,19.80
2018-08-16T02:40:28.847Z,19.70
2018-08-16T02:41:01.863Z,19.80
2018-08-16T02:41:34.897Z,19.80
2018-08-16T02:42:08.691Z,19.70
2018-08-16T02:42:41.715Z,19.70
2018-08-16T02:43:14.740Z,19.70
2018-08-16T02:43:47.792Z,19.70
2018-08-16T02:44:21.588Z,19.70
2018-08-16T02:44:55.384Z,19.70
2018-08-16T02:45:29.180Z,19.70
2018-08-16T02:46:02.992Z,19.70
2018-08-16T02:46:36.023Z,19.70
2018-08-16T02:47:09.043Z,19.70
2018-08-16T02:47:42.060Z,19.70
2018-08-16T02:48:15.080Z,19.70
2018-08-16T02:48:48.099Z,19.70
2018-08-16T02:49:21.132Z,19.70
2018-08-16T02:49:54.223Z,19.70
2018-08-16T02:50:27.269Z,19.70
2018-08-16T02:51:00.424Z,19.70
2018-08-16T02:51:33.328Z,19.70
2018-08-16T02:52:06.362Z,19.70
2018-08-16T02:52:39.408Z,19.70
2018-08-16T02:53:12.448Z,19.70
2018-08-16T02:53:46.228Z,19.70
2018-08-16T02:54:20.020Z,19.70
2018-08-16T02:54:53.803Z,19.70
2018-08-16T02:55:27.639Z,19.70
2018-08-16T02:56:00.808Z,19.70
2018-08-16T02:56:33.841Z,19.70
2018-08-16T02:57:07.090Z,19.70
2018-08-16T02:57:40.096Z,19.70
2018-08-16T02:58:13.895Z,19.70
2018-08-16T02:58:47.693Z,19.60
2018-08-16T02:59:21.488Z,19.60
2018-08-16T02:59:55.292Z,19.60
2018-08-16T03:00:28.329Z,19.70
2018-08-16T03:01:01.374Z,19.70
2018-08-16T03:01:34.404Z,19.60
2018-08-16T03:02:08.200Z,19.70
2018-08-16T03:02:42.007Z,19.60
2018-08-16T03:03:15.032Z,19.60
2018-08-16T03:03:48.056Z,19.70
2018-08-16T03:04:21.076Z,19.60
2018-08-16T03:04:54.129Z,19.60
2018-08-16T03:05:27.162Z,19.60
2018-08-16T03:06:00.229Z,19.60
2018-08-16T03:06:33.255Z,19.60
2018-08-16T03:07:06.440Z,19.60
2018-08-16T03:07:39.461Z,19.60
2018-08-16T03:08:12.500Z,19.60
2018-08-16T03:08:46.309Z,19.60
2018-08-16T03:09:19.333Z,19.60
2018-08-16T03:09:52.516Z,19.60
2018-08-16T03:10:25.539Z,19.60
2018-08-16T03:10:58.588Z,19.60
2018-08-16T03:11:31.617Z,19.60
2018-08-16T03:12:05.415Z,19.60
2018-08-16T03:12:38.450Z,19.60
2018-08-16T03:13:11.594Z,19.60
2018-08-16T03:13:44.616Z,19.60
2018-08-16T03:14:18.420Z,19.60
2018-08-16T03:14:52.208Z,19.60
2018-08-16T03:15:26.000Z,19.60
2018-08-16T03:15:59.803Z,19.60
2018-08-16T03:16:32.839Z,19.60
2018-08-16T03:17:05.889Z,19.60
2018-08-16T03:17:39.445Z,19.60
2018-08-16T03:18:12.441Z,19.50
2018-08-16T03:18:45.477Z,19.50
2018-08-16T03:19:18.509Z,19.60
2018-08-16T03:19:52.316Z,19.50
2018-08-16T03:20:25.336Z,19.50
2018-08-16T03:20:58.909Z,19.50
2018-08-16T03:21:32.695Z,19.50
2018-08-16T03:22:06.488Z,19.50
2018-08-16T03:22:40.276Z,19.50
2018-08-16T03:23:14.067Z,19.60
2018-08-16T03:23:47.859Z,19.50
2018-08-16T03:24:21.664Z,19.50
2018-08-16T03:24:55.456Z,19.50
2018-08-16T03:25:29.251Z,19.50
2018-08-16T03:26:03.071Z,19.60
2018-08-16T03:26:36.076Z,19.50
2018-08-16T03:27:09.128Z,19.50
2018-08-16T03:27:42.182Z,19.50
2018-08-16T03:28:16.201Z,19.50
2018-08-16T03:28:49.227Z,19.50
2018-08-16T03:29:22.345Z,19.50
2018-08-16T03:29:55.358Z,19.40
2018-08-16T03:30:28.389Z,19.50
2018-08-16T03:31:01.442Z,19.50
2018-08-16T03:31:35.232Z,19.50
2018-08-16T03:32:09.049Z,19.50
2018-08-16T03:32:42.064Z,19.50
2018-08-16T03:33:15.094Z,19.50
2018-08-16T03:33:48.116Z,19.50
2018-08-16T03:34:21.158Z,19.50
2018-08-16T03:34:54.184Z,19.50
2018-08-16T03:35:27.975Z,19.50
2018-08-16T03:36:01.793Z,19.50
2018-08-16T03:36:34.832Z,19.50
2018-08-16T03:37:07.868Z,19.50
2018-08-16T03:37:40.896Z,19.50
2018-08-16T03:38:15.651Z,19.50
2018-08-16T03:38:49.408Z,19.50
2018-08-16T03:39:23.216Z,19.50
2018-08-16T03:39:56.408Z,19.50
2018-08-16T03:40:29.452Z,19.50
2018-08-16T03:41:02.495Z,19.50
2018-08-16T03:41:35.555Z,19.50
2018-08-16T03:42:08.584Z,19.40
2018-08-16T03:42:41.620Z,19.50
2018-08-16T03:43:14.645Z,19.50
2018-08-16T03:43:48.219Z,19.50
2018-08-16T03:44:22.019Z,19.50
2018-08-16T03:44:55.044Z,19.50
2018-08-16T03:45:28.067Z,19.40
2018-08-16T03:46:01.108Z,19.40
2018-08-16T03:46:34.151Z,19.50
2018-08-16T03:47:07.171Z,19.40
2018-08-16T03:47:40.967Z,19.40
2018-08-16T03:48:14.052Z,19.40
2018-08-16T03:48:47.033Z,19.40
2018-08-16T03:49:20.048Z,19.40
2018-08-16T03:49:53.077Z,19.40
2018-08-16T03:50:26.107Z,19.40
2018-08-16T03:50:59.155Z,19.40
2018-08-16T03:51:32.216Z,19.40
2018-08-16T03:52:05.254Z,19.40
2018-08-16T03:52:39.056Z,19.40
2018-08-16T03:53:12.857Z,19.40
2018-08-16T03:53:46.661Z,19.40
2018-08-16T03:54:19.699Z,19.40
2018-08-16T03:54:52.715Z,19.40
2018-08-16T03:55:25.747Z,19.40
2018-08-16T03:55:58.784Z,19.40
2018-08-16T03:56:31.837Z,19.40
2018-08-16T03:57:04.899Z,19.40
2018-08-16T03:57:38.704Z,19.40
2018-08-16T03:58:11.745Z,19.40
2018-08-16T03:58:44.773Z,19.40
2018-08-16T03:59:17.933Z,19.40
2018-08-16T03:59:50.955Z,19.30
2018-08-16T04:00:23.987Z,19.30
2018-08-16T04:00:57.044Z,19.30
2018-08-16T04:01:30.095Z,19.30
2018-08-16T04:02:04.154Z,19.30
2018-08-16T04:02:37.308Z,19.30
2018-08-16T04:03:10.336Z,19.30
2018-08-16T04:03:43.364Z,19.30
2018-08-16T04:04:16.393Z,19.40
2018-08-16T04:04:49.428Z,19.30
2018-08-16T04:05:22.588Z,19.30
2018-08-16T04:05:55.613Z,19.30
2018-08-16T04:06:28.667Z,19.30
2018-08-16T04:07:02.617Z,19.30
2018-08-16T04:07:35.641Z,19.30
2018-08-16T04:08:08.663Z,19.30
2018-08-16T04:08:41.698Z,19.30
2018-08-16T04:09:14.736Z,19.30
2018-08-16T04:09:47.780Z,19.30
2018-08-16T04:10:21.574Z,19.30
2018-08-16T04:10:55.383Z,19.30
2018-08-16T04:11:28.592Z,19.30
2018-08-16T04:12:01.640Z,19.30
2018-08-16T04:12:34.732Z,19.30
2018-08-16T04:13:07.762Z,19.30
2018-08-16T04:13:40.776Z,19.30
2018-08-16T04:14:13.804Z,19.30
2018-08-16T04:14:47.595Z,19.30
2018-08-16T04:15:21.417Z,19.30
2018-08-16T04:15:54.602Z,19.30
2018-08-16T04:16:27.804Z,19.30
2018-08-16T04:17:00.833Z,19.30
2018-08-16T04:17:33.865Z,19.30
2018-08-16T04:18:06.882Z,19.30
2018-08-16T04:18:40.687Z,19.30
2018-08-16T04:19:13.708Z,19.30
2018-08-16T04:19:46.978Z,19.30
2018-08-16T04:20:20.829Z,19.30
2018-08-16T04:20:53.870Z,19.30
2018-08-16T04:21:26.927Z,19.30
2018-08-16T04:21:59.968Z,19.30
2018-08-16T04:22:33.012Z,19.30
2018-08-16T04:23:06.044Z,19.30
2018-08-16T04:23:39.126Z,19.30
2018-08-16T04:24:12.282Z,19.20
2018-08-16T04:24:45.452Z,19.30
2018-08-16T04:25:18.490Z,19.30
2018-08-16T04:25:51.612Z,19.30
2018-08-16T04:26:24.660Z,19.20
2018-08-16T04:26:57.694Z,19.20
2018-08-16T04:27:30.724Z,19.20
2018-08-16T04:28:03.784Z,19.20
2018-08-16T04:28:36.817Z,19.20
2018-08-16T04:29:09.863Z,19.20
2018-08-16T04:29:42.876Z,19.20
2018-08-16T04:30:15.907Z,19.20
2018-08-16T04:30:48.935Z,19.20
2018-08-16T04:31:22.747Z,19.20
2018-08-16T04:31:55.776Z,19.20
2018-08-16T04:32:28.823Z,19.20
2018-08-16T04:33:01.852Z,19.20
2018-08-16T04:33:35.646Z,19.20
2018-08-16T04:34:09.431Z,19.20
2018-08-16T04:34:43.244Z,19.20
2018-08-16T04:35:16.266Z,19.20
2018-08-16T04:35:49.326Z,19.20
2018-08-16T04:36:22.336Z,19.20
2018-08-16T04:36:55.379Z,19.20
2018-08-16T04:37:28.423Z,19.20
2018-08-16T04:38:01.451Z,19.20
2018-08-16T04:38:34.481Z,19.20
2018-08-16T04:39:07.511Z,19.20
2018-08-16T04:39:40.525Z,19.20
2018-08-16T04:40:13.576Z,19.20
2018-08-16T04:40:47.901Z,19.20
2018-08-16T04:41:20.931Z,19.20
2018-08-16T04:41:53.998Z,19.20
2018-08-16T04:42:27.008Z,19.20
2018-08-16T04:43:00.035Z,19.20
2018-08-16T04:43:33.055Z,19.20
2018-08-16T04:44:06.871Z,19.20
2018-08-16T04:44:39.900Z,19.20
2018-08-16T04:45:12.944Z,19.20
2018-08-16T04:45:45.993Z,19.20
2018-08-16T04:46:19.027Z,19.20
2018-08-16T04:46:52.092Z,19.20
2018-08-16T04:47:25.123Z,19.20
2018-08-16T04:47:58.164Z,19.20
2018-08-16T04:48:32.020Z,19.20
2018-08-16T04:49:05.769Z,19.20
2018-08-16T04:49:38.803Z,19.20
2018-08-16T04:50:11.854Z,19.20
2018-08-16T04:50:44.888Z,19.20
2018-08-16T04:51:17.936Z,19.20
2018-08-16T04:51:50.993Z,19.20
2018-08-16T04:52:24.060Z,19.20
2018-08-16T04:52:57.089Z,19.20
2018-08-16T04:53:30.900Z,19.20
2018-08-16T04:54:03.973Z,19.20
2018-08-16T04:54:37.017Z,19.20
2018-08-16T04:55:10.825Z,19.20
2018-08-16T04:55:44.656Z,19.20
2018-08-16T04:56:17.916Z,19.20
2018-08-16T04:56:50.999Z,19.20
2018-08-16T04:57:24.768Z,19.20
2018-08-16T04:57:58.555Z,19.30
2018-08-16T04:58:31.584Z,19.20
2018-08-16T04:59:04.624Z,19.20
2018-08-16T04:59:38.428Z,19.20
2018-08-16T05:00:11.464Z,19.00
2018-08-16T05:00:45.268Z,19.20
2018-08-16T05:01:19.213Z,19.30
2018-08-16T05:01:52.320Z,19.20
2018-08-16T05:02:26.114Z,19.30
2018-08-16T05:02:59.158Z,19.20
2018-08-16T05:03:32.943Z,19.20
2018-08-16T05:04:05.980Z,19.30
2018-08-16T05:04:39.771Z,19.20
2018-08-16T05:05:13.563Z,19.30
2018-08-16T05:05:46.589Z,19.20
2018-08-16T05:06:19.750Z,19.30
2018-08-16T05:06:52.799Z,19.30
2018-08-16T05:07:25.836Z,19.20
2018-08-16T05:07:58.886Z,19.30
2018-08-16T05:08:31.907Z,19.30
2018-08-16T05:09:04.936Z,19.30
2018-08-16T05:09:37.958Z,19.30
2018-08-16T05:10:10.991Z,19.30
2018-08-16T05:10:44.037Z,19.30
2018-08-16T05:11:17.092Z,19.30
2018-08-16T05:11:50.152Z,19.30
2018-08-16T05:12:23.977Z,19.30
2018-08-16T05:12:57.011Z,19.20
2018-08-16T05:13:30.820Z,19.30
2018-08-16T05:14:03.856Z,19.20
2018-08-16T05:14:36.994Z,19.30
2018-08-16T05:15:10.039Z,19.30
2018-08-16T05:15:43.072Z,19.30
2018-08-16T05:16:16.095Z,19.30
2018-08-16T05:16:49.125Z,19.30
2018-08-16T05:17:22.252Z,19.30
2018-08-16T05:17:55.210Z,19.20
2018-08-16T05:18:29.005Z,19.30
2018-08-16T05:19:02.047Z,19.30
2018-08-16T05:19:35.185Z,19.30
2018-08-16T05:20:08.233Z,19.30
2018-08-16T05:20:41.251Z,19.30
2018-08-16T05:21:14.276Z,19.30
2018-08-16T05:21:47.316Z,19.30
2018-08-16T05:22:20.464Z,19.30
2018-08-16T05:22:53.484Z,19.20
2018-08-16T05:23:26.501Z,19.30
2018-08-16T05:23:59.606Z,19.30
2018-08-16T05:24:33.324Z,19.30
2018-08-16T05:25:07.143Z,19.20
2018-08-16T05:25:40.180Z,19.30
2018-08-16T05:26:13.205Z,19.30
2018-08-16T05:26:46.223Z,19.30
2018-08-16T05:27:19.265Z,19.30
2018-08-16T05:27:52.287Z,19.30
2018-08-16T05:28:25.420Z,19.30
2018-08-16T05:28:58.454Z,19.30
2018-08-16T05:29:32.243Z,19.30
2018-08-16T05:30:05.275Z,19.30
2018-08-16T05:30:38.311Z,19.30
2018-08-16T05:31:12.115Z,19.30
2018-08-16T05:31:45.432Z,19.30
2018-08-16T05:32:18.509Z,19.30
2018-08-16T05:32:51.667Z,19.30
2018-08-16T05:33:24.696Z,19.30
2018-08-16T05:33:58.508Z,19.30
2018-08-16T05:34:31.536Z,19.30
2018-08-16T05:35:04.584Z,19.40
2018-08-16T05:35:37.611Z,19.40
2018-08-16T05:36:11.415Z,19.40
2018-08-16T05:36:44.451Z,19.40
2018-08-16T05:37:17.493Z,19.40
2018-08-16T05:37:50.550Z,19.40
2018-08-16T05:38:23.603Z,19.40
2018-08-16T05:38:57.426Z,19.40
2018-08-16T05:39:30.455Z,19.40
2018-08-16T05:40:03.584Z,19.40
2018-08-16T05:40:36.612Z,19.40
2018-08-16T05:41:10.417Z,19.40
2018-08-16T05:41:43.452Z,19.40
2018-08-16T05:42:16.497Z,19.40
2018-08-16T05:42:50.009Z,19.40
2018-08-16T05:43:23.119Z,19.40
2018-08-16T05:43:56.089Z,19.40
2018-08-16T05:44:29.112Z,19.40
2018-08-16T05:45:02.140Z,19.40
2018-08-16T05:45:35.936Z,19.40
2018-08-16T05:46:09.747Z,19.50
2018-08-16T05:46:42.768Z,19.50
2018-08-16T05:47:15.839Z,19.50
2018-08-16T05:47:48.869Z,19.50
2018-08-16T05:48:21.903Z,19.50
2018-08-16T05:48:54.929Z,19.50
2018-08-16T05:49:27.964Z,19.50
2018-08-16T05:50:01.756Z,19.50
2018-08-16T05:50:34.784Z,19.50
2018-08-16T05:51:07.812Z,19.50
2018-08-16T05:51:41.630Z,19.50
2018-08-16T05:52:14.655Z,19.50
2018-08-16T05:52:47.699Z,19.50
2018-08-16T05:53:20.732Z,19.60
2018-08-16T05:53:53.760Z,19.60
2018-08-16T05:54:26.791Z,19.60
2018-08-16T05:54:59.824Z,19.60
2018-08-16T05:55:32.963Z,19.60
2018-08-16T05:56:05.999Z,19.60
2018-08-16T05:56:39.128Z,19.60
2018-08-16T05:57:12.156Z,19.60
2018-08-16T05:57:45.188Z,19.60
2018-08-16T05:58:18.986Z,19.70
2018-08-16T05:58:52.020Z,19.70
2018-08-16T05:59:25.075Z,19.70
2018-08-16T05:59:58.081Z,19.70
2018-08-16T06:00:31.104Z,19.70
2018-08-16T06:01:04.143Z,19.70
2018-08-16T06:01:37.178Z,19.70
2018-08-16T06:02:10.205Z,19.70
2018-08-16T06:02:43.248Z,19.70
2018-08-16T06:03:16.303Z,19.70
2018-08-16T06:03:50.103Z,19.70
2018-08-16T06:04:23.895Z,19.70
2018-08-16T06:04:56.931Z,19.70
2018-08-16T06:05:29.960Z,19.70
2018-08-16T06:06:02.993Z,19.80
2018-08-16T06:06:36.019Z,19.80
2018-08-16T06:07:09.052Z,19.80
2018-08-16T06:07:42.923Z,19.80
2018-08-16T06:08:15.883Z,19.80
2018-08-16T06:08:48.908Z,19.80
2018-08-16T06:09:21.945Z,19.80
2018-08-16T06:09:54.988Z,19.80
2018-08-16T06:10:28.016Z,19.90
2018-08-16T06:11:01.144Z,19.80
2018-08-16T06:11:34.183Z,19.90
2018-08-16T06:12:07.284Z,19.90
2018-08-16T06:12:40.330Z,19.90
2018-08-16T06:13:14.120Z,19.90
2018-08-16T06:13:47.932Z,19.90
2018-08-16T06:14:20.981Z,19.90
2018-08-16T06:14:54.779Z,20.00
2018-08-16T06:15:27.906Z,20.00
2018-08-16T06:16:02.369Z,20.00
2018-08-16T06:16:35.403Z,20.00
2018-08-16T06:17:08.424Z,20.00
2018-08-16T06:17:41.485Z,20.00
2018-08-16T06:18:15.283Z,20.10
2018-08-16T06:18:48.307Z,20.00
2018-08-16T06:19:21.339Z,20.10
2018-08-16T06:19:54.397Z,20.10
2018-08-16T06:20:28.252Z,20.10
2018-08-16T06:21:01.308Z,20.10
2018-08-16T06:21:34.358Z,20.10
2018-08-16T06:22:07.419Z,20.20
2018-08-16T06:22:41.223Z,20.20
2018-08-16T06:23:14.263Z,20.20
2018-08-16T06:23:47.312Z,20.20
2018-08-16T06:24:20.432Z,20.20
2018-08-16T06:24:53.437Z,20.20
2018-08-16T06:25:26.485Z,20.20
2018-08-16T06:26:00.300Z,20.30
2018-08-16T06:26:33.380Z,20.30
2018-08-16T06:27:06.424Z,20.30
2018-08-16T06:27:40.232Z,20.30
2018-08-16T06:28:13.279Z,20.30
2018-08-16T06:28:46.313Z,20.30
2018-08-16T06:29:19.344Z,20.30
2018-08-16T06:29:52.384Z,20.40
2018-08-16T06:30:25.432Z,20.40
2018-08-16T06:30:58.464Z,20.40
2018-08-16T06:31:31.545Z,20.40
2018-08-16T06:32:04.535Z,20.40
2018-08-16T06:32:37.619Z,20.40
2018-08-16T06:33:10.716Z,20.40
2018-08-16T06:33:43.785Z,20.50
2018-08-16T06:34:16.816Z,20.50
2018-08-16T06:34:50.608Z,20.50
2018-08-16T06:35:24.394Z,20.50
2018-08-16T06:35:58.212Z,20.60
2018-08-16T06:36:31.243Z,20.60
2018-08-16T06:37:04.286Z,20.60
2018-08-16T06:37:37.304Z,20.60
2018-08-16T06:38:11.117Z,20.60
2018-08-16T06:38:44.192Z,20.60
2018-08-16T06:39:17.294Z,20.70
2018-08-16T06:39:50.323Z,20.70
2018-08-16T06:40:24.132Z,20.80
2018-08-16T06:40:57.178Z,20.80
2018-08-16T06:41:29.774Z,20.80
2018-08-16T06:42:02.734Z,20.90
2018-08-16T06:42:36.527Z,20.90
2018-08-16T06:43:10.341Z,20.90
2018-08-16T06:43:43.355Z,20.90
2018-08-16T06:44:16.400Z,20.90
2018-08-16T06:44:49.500Z,20.90
2018-08-16T06:45:22.647Z,21.00
2018-08-16T06:45:55.661Z,21.00
2018-08-16T06:46:28.697Z,21.10
2018-08-16T06:47:01.723Z,21.10
2018-08-16T06:47:34.767Z,21.00
2018-08-16T06:48:07.811Z,21.10
2018-08-16T06:48:40.850Z,21.10
2018-08-16T06:49:13.885Z,21.10
2018-08-16T06:49:46.921Z,21.20
2018-08-16T06:50:20.720Z,21.20
2018-08-16T06:50:53.748Z,21.20
2018-08-16T06:51:26.787Z,21.20
2018-08-16T06:51:59.815Z,21.30
2018-08-16T06:52:32.864Z,21.40
2018-08-16T06:53:05.460Z,21.40
2018-08-16T06:53:37.959Z,21.40
2018-08-16T06:54:10.457Z,21.40
2018-08-16T06:54:42.976Z,21.50
2018-08-16T06:55:15.475Z,21.60
2018-08-16T06:55:48.439Z,21.70
2018-08-16T06:56:21.501Z,21.70
2018-08-16T06:56:54.124Z,21.80
2018-08-16T06:57:27.072Z,21.80
2018-08-16T06:58:00.124Z,21.70
2018-08-16T06:58:33.171Z,21.70
2018-08-16T06:59:06.196Z,21.80
2018-08-16T06:59:39.336Z,21.80
2018-08-16T07:00:12.381Z,21.90
2018-08-16T07:00:46.180Z,22.00
2018-08-16T07:01:18.777Z,22.00
2018-08-16T07:02:43.588Z,22.10
2018-08-16T07:03:16.636Z,22.10
2018-08-16T07:03:49.673Z,22.20
2018-08-16T07:04:22.713Z,22.30
2018-08-16T07:04:56.553Z,22.30
2018-08-16T07:05:29.568Z,22.30
2018-08-16T07:06:02.604Z,22.40
2018-08-16T07:06:35.072Z,22.40
2018-08-16T07:07:07.568Z,22.50
2018-08-16T07:07:40.531Z,22.50